createdAt,value
2022-08-26T00:03:13.917Z,26.25
2022-08-26T00:08:16.090Z,25.80
2022-08-26T00:13:19.480Z,22.20
2022-08-26T00:18:23.011Z,23.15
2022-08-26T00:23:28.959Z,23.88
2022-08-26T00:28:31.089Z,23.13
2022-08-26T00:33:32.801Z,23.17
2022-08-26T00:38:37.923Z,27.95
2022-08-26T00:43:46.180Z,27.75
2022-08-26T00:48:53.997Z,29.23
2022-08-26T00:54:03.881Z,27.48
2022-08-26T00:59:10.438Z,28.50
2022-08-26T01:04:14.923Z,28.42
2022-08-26T01:09:18.168Z,32.72
2022-08-26T01:14:22.276Z,36.47
2022-08-26T01:19:31.820Z,33.33
2022-08-26T01:24:33.974Z,30.10
2022-08-26T01:29:42.605Z,36.90
2022-08-26T01:34:47.278Z,26.42
2022-08-26T01:39:52.318Z,31.98
2022-08-26T01:45:03.907Z,29.40
2022-08-26T01:50:11.799Z,29.67
2022-08-26T01:55:25.626Z,28.13
2022-08-26T02:00:35.872Z,27.52
2022-08-26T02:05:37.925Z,25.75
2022-08-26T02:10:39.828Z,27.48
2022-08-26T02:15:44.446Z,26.52
2022-08-26T02:20:46.674Z,27.50
2022-08-26T02:26:08.595Z,24.95
2022-08-26T02:31:13.062Z,29.80
2022-08-26T02:36:21.142Z,27.55
2022-08-26T02:41:23.087Z,27.35
2022-08-26T02:46:29.768Z,32.17
2022-08-26T02:51:31.898Z,26.73
2022-08-26T02:56:35.543Z,27.25
2022-08-26T03:01:37.330Z,24.98
2022-08-26T03:06:40.678Z,23.90
2022-08-26T03:11:43.233Z,27.13
2022-08-26T03:16:48.508Z,26.27
2022-08-26T03:21:51.736Z,25.35
2022-08-26T03:26:54.045Z,27.65
2022-08-26T03:31:55.914Z,28.95
2022-08-26T03:36:57.628Z,24.15
2022-08-26T03:41:59.841Z,25.83
2022-08-26T03:47:01.538Z,31.67
2022-08-26T03:52:05.112Z,25.80
2022-08-26T03:57:09.069Z,24.75
2022-08-26T04:02:11.680Z,26.40
2022-08-26T04:07:13.571Z,25.45
2022-08-26T04:12:16.639Z,30.80
2022-08-26T04:17:19.251Z,26.35
2022-08-26T04:22:26.773Z,28.58
2022-08-26T04:27:31.026Z,24.98
2022-08-26T04:32:32.642Z,26.65
2022-08-26T04:37:34.287Z,26.90
2022-08-26T04:42:36.740Z,28.60
2022-08-26T04:47:38.568Z,25.65
2022-08-26T04:52:40.251Z,28.73
2022-08-26T04:57:43.106Z,27.60
2022-08-26T05:02:46.163Z,26.38
2022-08-26T05:07:47.802Z,27.27
2022-08-26T05:12:51.531Z,26.02
2022-08-26T05:17:53.201Z,25.88
2022-08-26T05:22:54.822Z,28.88
2022-08-26T05:27:56.892Z,25.60
2022-08-26T05:32:58.784Z,35.60
2022-08-26T05:38:04.344Z,32.40
2022-08-26T05:43:10.397Z,30.70
2022-08-26T05:48:12.876Z,30.58
2022-08-26T05:53:17.519Z,28.95
2022-08-26T05:58:21.739Z,29.25
2022-08-26T06:03:23.439Z,44.45
2022-08-26T06:08:25.088Z,38.08
2022-08-26T06:13:31.847Z,36.78
2022-08-26T06:18:36.809Z,37.47
2022-08-26T06:23:57.669Z,37.75
2022-08-26T06:29:01.693Z,34.55
2022-08-26T06:34:10.734Z,44.85
2022-08-26T06:39:14.549Z,33.95
2022-08-26T06:44:16.445Z,32.25
2022-08-26T06:49:18.571Z,32.70
2022-08-26T06:54:32.043Z,23.80
2022-08-26T06:59:33.672Z,26.88
2022-08-26T07:04:35.984Z,34.47
2022-08-26T07:09:37.605Z,25.92
2022-08-26T07:14:39.409Z,25.33
2022-08-26T07:19:41.022Z,21.27
2022-08-26T07:24:42.821Z,22.20
2022-08-26T07:29:45.956Z,24.77
2022-08-26T07:34:47.691Z,26.58
2022-08-26T07:39:49.379Z,25.45
2022-08-26T07:44:51.084Z,22.02
2022-08-26T07:49:55.667Z,22.70
2022-08-26T07:54:59.337Z,21.75
2022-08-26T08:00:02.113Z,19.48
2022-08-26T08:05:16.769Z,18.42
2022-08-26T08:10:23.061Z,20.48
2022-08-26T08:15:29.867Z,20.05
2022-08-26T08:20:31.561Z,20.13
2022-08-26T08:25:34.485Z,19.90
2022-08-26T08:30:39.007Z,19.75
2022-08-26T08:35:42.414Z,22.05
2022-08-26T08:40:45.988Z,21.55
2022-08-26T08:45:52.630Z,25.55
2022-08-26T08:51:30.156Z,21.92
2022-08-26T08:56:33.425Z,22.92
2022-08-26T09:01:35.526Z,18.13
2022-08-26T09:06:37.212Z,18.65
2022-08-26T09:11:43.401Z,21.55
2022-08-26T09:16:58.350Z,22.05
2022-08-26T09:22:04.683Z,16.17
2022-08-26T09:27:08.974Z,21.67
2022-08-26T09:32:24.321Z,20.65
2022-08-26T09:37:43.465Z,19.45
2022-08-26T09:42:45.207Z,16.92
2022-08-26T09:47:56.009Z,17.25
2022-08-26T09:53:13.960Z,20.90
2022-08-26T09:58:31.641Z,16.90
2022-08-26T10:03:38.089Z,16.70
2022-08-26T10:08:44.209Z,14.77
2022-08-26T10:13:56.470Z,13.43
2022-08-26T10:19:08.196Z,14.30
2022-08-26T10:24:15.077Z,13.20
2022-08-26T10:29:46.468Z,17.33
2022-08-26T10:34:48.271Z,18.48
2022-08-26T10:39:57.139Z,14.98
2022-08-26T10:45:26.613Z,20.55
2022-08-26T10:50:40.350Z,22.35
2022-08-26T10:56:15.814Z,22.00
2022-08-26T11:01:46.951Z,14.65
2022-08-26T11:06:49.318Z,12.45
2022-08-26T11:11:51.062Z,13.70
2022-08-26T11:16:55.102Z,13.45
2022-08-26T11:22:36.945Z,18.35
2022-08-26T11:27:38.508Z,14.63
2022-08-26T11:32:40.060Z,12.55
2022-08-26T11:37:51.093Z,13.70
2022-08-26T11:42:59.617Z,17.77
2022-08-26T11:48:27.058Z,11.07
2022-08-26T11:53:30.943Z,13.55
2022-08-26T11:58:36.399Z,14.88
2022-08-26T12:03:48.442Z,14.77
2022-08-26T12:08:51.929Z,23.65
2022-08-26T12:14:00.406Z,18.40
2022-08-26T12:19:02.135Z,20.00
2022-08-26T12:24:04.359Z,15.27
2022-08-26T12:29:19.688Z,17.25
2022-08-26T12:34:28.322Z,17.42
2022-08-26T12:39:33.974Z,15.18
2022-08-26T12:44:38.773Z,13.35
2022-08-26T12:49:43.036Z,16.08
2022-08-26T12:55:02.576Z,14.00
2022-08-26T13:00:34.753Z,13.30
2022-08-26T13:05:37.947Z,13.32
2022-08-26T13:10:46.310Z,13.85
2022-08-26T13:15:47.975Z,17.20
2022-08-26T13:20:49.647Z,13.40
2022-08-26T13:25:53.557Z,13.27
2022-08-26T13:30:55.637Z,13.23
2022-08-26T13:35:58.248Z,12.82
2022-08-26T13:41:00.022Z,12.45
2022-08-26T13:46:01.934Z,12.65
2022-08-26T13:51:08.232Z,10.70
2022-08-26T13:56:11.236Z,13.35
2022-08-26T14:01:14.214Z,13.73
2022-08-26T14:06:16.567Z,12.30
2022-08-26T14:11:18.432Z,13.15
2022-08-26T14:16:27.473Z,12.55
2022-08-26T14:21:34.780Z,13.60
2022-08-26T14:26:36.414Z,13.23
2022-08-26T14:31:38.547Z,12.88
2022-08-26T14:36:42.709Z,12.52
2022-08-26T14:41:54.393Z,12.60
2022-08-26T14:46:56.983Z,14.13
2022-08-26T14:51:58.746Z,15.02
2022-08-26T14:57:07.220Z,11.02
2022-08-26T15:02:13.749Z,12.23
2022-08-26T15:07:19.796Z,11.38
2022-08-26T15:12:21.884Z,13.80
2022-08-26T15:17:23.595Z,11.10
2022-08-26T15:22:26.119Z,12.20
2022-08-26T15:27:32.228Z,12.38
2022-08-26T15:32:34.004Z,10.15
2022-08-26T15:37:35.909Z,14.30
2022-08-26T15:42:37.606Z,13.45
2022-08-26T15:47:48.406Z,10.43
2022-08-26T15:53:01.508Z,12.77
2022-08-26T15:58:03.277Z,12.05
2022-08-26T16:03:06.678Z,11.73
2022-08-26T16:08:08.421Z,10.27
2022-08-26T16:13:12.963Z,12.77
2022-08-26T16:18:16.599Z,9.85
2022-08-26T16:23:18.871Z,11.63
2022-08-26T16:28:25.046Z,9.57
2022-08-26T16:33:29.236Z,12.57
2022-08-26T16:38:31.417Z,10.75
2022-08-26T16:43:33.577Z,10.57
2022-08-26T16:48:35.310Z,13.88
2022-08-26T16:53:38.173Z,10.75
2022-08-26T16:58:40.724Z,12.73
2022-08-26T17:03:42.834Z,11.73
2022-08-26T17:08:44.574Z,12.13
2022-08-26T17:13:46.344Z,14.23
2022-08-26T17:18:48.029Z,13.65
2022-08-26T17:23:50.127Z,17.23
2022-08-26T17:28:52.422Z,17.75
2022-08-26T17:33:55.532Z,13.00
2022-08-26T17:38:58.007Z,14.35
2022-08-26T17:43:59.630Z,15.95
2022-08-26T17:49:02.074Z,15.70
2022-08-26T17:54:03.959Z,16.70
2022-08-26T17:59:05.886Z,16.70
2022-08-26T18:04:10.242Z,17.15
2022-08-26T18:09:12.110Z,16.00
2022-08-26T18:14:13.766Z,17.35
2022-08-26T18:19:15.658Z,18.00
2022-08-26T18:24:17.681Z,19.60
2022-08-26T18:29:19.865Z,18.67
2022-08-26T18:34:21.572Z,21.85
2022-08-26T18:39:23.466Z,20.40
2022-08-26T18:44:25.539Z,20.67
2022-08-26T18:49:27.244Z,20.05
2022-08-26T18:54:30.025Z,21.80
2022-08-26T18:59:32.200Z,20.13
2022-08-26T19:04:34.480Z,19.60
2022-08-26T19:09:36.299Z,28.13
2022-08-26T19:14:38.173Z,20.23
2022-08-26T19:19:39.815Z,24.25
2022-08-26T19:24:41.503Z,24.08
2022-08-26T19:29:43.149Z,23.63
2022-08-26T19:34:44.812Z,21.13
2022-08-26T19:39:46.914Z,24.77
2022-08-26T19:45:07.031Z,26.15
2022-08-26T19:50:13.137Z,24.02
2022-08-26T19:55:17.851Z,24.30
2022-08-26T20:00:24.190Z,24.70
2022-08-26T20:05:26.505Z,24.15
2022-08-26T20:10:28.161Z,27.98
2022-08-26T20:15:29.950Z,31.58
2022-08-26T20:20:50.396Z,32.65
2022-08-26T20:25:52.032Z,30.75
2022-08-26T20:30:53.827Z,35.30
2022-08-26T20:35:55.469Z,38.28
2022-08-26T20:40:57.131Z,38.97
2022-08-26T20:45:58.866Z,44.85
2022-08-26T20:51:01.648Z,39.30
2022-08-26T20:56:06.595Z,39.25
2022-08-26T21:01:17.799Z,39.83
2022-08-26T21:06:19.635Z,43.85
2022-08-26T21:11:22.549Z,42.17
2022-08-26T21:16:24.290Z,37.20
2022-08-26T21:21:27.549Z,35.05
2022-08-26T21:26:29.441Z,36.72
2022-08-26T21:31:32.123Z,32.65
2022-08-26T21:36:34.368Z,31.20
2022-08-26T21:41:36.044Z,35.80
2022-08-26T21:46:37.788Z,34.08
2022-08-26T21:51:43.111Z,34.72
2022-08-26T21:56:46.837Z,40.60
2022-08-26T22:01:49.275Z,33.10
2022-08-26T22:06:53.698Z,32.22
2022-08-26T22:11:56.903Z,35.60
2022-08-26T22:16:59.711Z,34.38
2022-08-26T22:22:02.431Z,37.05
2022-08-26T22:27:04.873Z,37.47
2022-08-26T22:32:06.872Z,39.17
2022-08-26T22:37:08.856Z,36.70
2022-08-26T22:42:10.804Z,43.00
2022-08-26T22:47:12.671Z,57.45
2022-08-26T22:52:14.579Z,62.38
2022-08-26T22:57:16.488Z,32.05
2022-08-26T23:02:18.355Z,12.32
2022-08-26T23:07:20.264Z,8.45
2022-08-26T23:12:22.244Z,10.80
2022-08-26T23:17:24.325Z,10.38
2022-08-26T23:22:28.207Z,10.77
2022-08-26T23:27:30.153Z,13.50
2022-08-26T23:32:32.002Z,13.77
2022-08-26T23:37:38.758Z,12.85
2022-08-26T23:42:44.124Z,14.40
2022-08-26T23:47:47.052Z,16.30
2022-08-26T23:53:08.809Z,23.20
2022-08-26T23:58:11.348Z,30.50
